sensor_id;sensor_type;location;lat;lon;timestamp;temperature;humidity
15625;DHT22;7912;51.376;6.126;2022-12-29T00:01:03;14.30;99.90
15625;DHT22;7912;51.376;6.126;2022-12-29T00:03:30;14.20;99.90
15625;DHT22;7912;51.376;6.126;2022-12-29T00:05:59;14.20;99.90
15625;DHT22;7912;51.376;6.126;2022-12-29T00:08:46;14.20;99.90
15625;DHT22;7912;51.376;6.126;2022-12-29T00:11:15;14.10;99.90
15625;DHT22;7912;51.376;6.126;2022-12-29T00:13:45;14.10;99.90
15625;DHT22;7912;51.376;6.126;2022-12-29T00:16:31;14.10;99.90
15625;DHT22;7912;51.376;6.126;2022-12-29T00:19:00;14.10;99.90
15625;DHT22;7912;51.376;6.126;2022-12-29T00:21:28;14.10;99.90
15625;DHT22;7912;51.376;6.126;2022-12-29T00:24:20;14.10;99.90
15625;DHT22;7912;51.376;6.126;2022-12-29T00:29:48;14.10;99.90
15625;DHT22;7912;51.376;6.126;2022-12-29T00:32:34;14.10;99.90
15625;DHT22;7912;51.376;6.126;2022-12-29T00:36:11;14.10;99.90
15625;DHT22;7912;51.376;6.126;2022-12-29T00:38:21;14.10;99.90
15625;DHT22;7912;51.376;6.126;2022-12-29T00:41:07;14.20;99.90
15625;DHT22;7912;51.376;6.126;2022-12-29T00:44:01;14.10;99.90
15625;DHT22;7912;51.376;6.126;2022-12-29T00:46:37;14.20;99.90
15625;DHT22;7912;51.376;6.126;2022-12-29T00:49:09;14.20;99.90
15625;DHT22;7912;51.376;6.126;2022-12-29T00:52:08;14.20;99.90
15625;DHT22;7912;51.376;6.126;2022-12-29T00:54:40;14.20;99.90
15625;DHT22;7912;51.376;6.126;2022-12-29T00:57:10;14.20;99.90
15625;DHT22;7912;51.376;6.126;2022-12-29T00:59:40;14.20;99.90
15625;DHT22;7912;51.376;6.126;2022-12-29T01:02:09;14.20;99.90
15625;DHT22;7912;51.376;6.126;2022-12-29T01:04:37;14.20;99.90
15625;DHT22;7912;51.376;6.126;2022-12-29T01:07:04;14.20;99.90
15625;DHT22;7912;51.376;6.126;2022-12-29T01:09:32;14.20;99.90
15625;DHT22;7912;51.376;6.126;2022-12-29T01:12:18;14.20;99.90
15625;DHT22;7912;51.376;6.126;2022-12-29T01:15:08;14.20;99.90
15625;DHT22;7912;51.376;6.126;2022-12-29T01:17:36;14.20;99.90
15625;DHT22;7912;51.376;6.126;2022-12-29T01:20:04;14.20;99.90
15625;DHT22;7912;51.376;6.126;2022-12-29T01:22:32;14.20;99.90
15625;DHT22;7912;51.376;6.126;2022-12-29T01:24:59;14.20;99.90
15625;DHT22;7912;51.376;6.126;2022-12-29T01:27:27;14.20;99.90
15625;DHT22;7912;51.376;6.126;2022-12-29T01:29:54;14.20;99.90
15625;DHT22;7912;51.376;6.126;2022-12-29T01:32:22;14.20;99.90
15625;DHT22;7912;51.376;6.126;2022-12-29T01:34:49;14.20;99.90
15625;DHT22;7912;51.376;6.126;2022-12-29T01:37:16;14.30;99.90
15625;DHT22;7912;51.376;6.126;2022-12-29T01:39:44;14.30;99.90
15625;DHT22;7912;51.376;6.126;2022-12-29T01:42:17;14.30;99.90
15625;DHT22;7912;51.376;6.126;2022-12-29T01:44:52;14.30;99.90
15625;DHT22;7912;51.376;6.126;2022-12-29T01:47:36;14.30;99.90
15625;DHT22;7912;51.376;6.126;2022-12-29T01:50:29;14.40;99.90
15625;DHT22;7912;51.376;6.126;2022-12-29T01:53:09;14.40;99.90
15625;DHT22;7912;51.376;6.126;2022-12-29T01:55:44;14.40;99.90
15625;DHT22;7912;51.376;6.126;2022-12-29T01:58:18;14.40;99.90
15625;DHT22;7912;51.376;6.126;2022-12-29T02:00:48;14.50;99.90
15625;DHT22;7912;51.376;6.126;2022-12-29T02:03:17;14.50;99.90
15625;DHT22;7912;51.376;6.126;2022-12-29T02:08:46;14.50;99.90
15625;DHT22;7912;51.376;6.126;2022-12-29T02:11:16;14.60;99.90
15625;DHT22;7912;51.376;6.126;2022-12-29T02:13:44;14.60;99.90
15625;DHT22;7912;51.376;6.126;2022-12-29T02:22:03;14.70;99.90
15625;DHT22;7912;51.376;6.126;2022-12-29T02:36:01;14.60;99.90
15625;DHT22;7912;51.376;6.126;2022-12-29T02:41:45;14.60;99.90
15625;DHT22;7912;51.376;6.126;2022-12-29T02:47:22;14.50;99.90
15625;DHT22;7912;51.376;6.126;2022-12-29T02:50:19;14.50;99.90
15625;DHT22;7912;51.376;6.126;2022-12-29T02:52:59;14.40;99.90
15625;DHT22;7912;51.376;6.126;2022-12-29T02:55:28;14.40;99.90
15625;DHT22;7912;51.376;6.126;2022-12-29T02:58:16;14.30;99.90
15625;DHT22;7912;51.376;6.126;2022-12-29T03:01:21;14.30;99.90
15625;DHT22;7912;51.376;6.126;2022-12-29T03:10:48;14.20;99.90
15625;DHT22;7912;51.376;6.126;2022-12-29T03:16:48;14.20;99.90
15625;DHT22;7912;51.376;6.126;2022-12-29T03:19:26;14.20;99.90
15625;DHT22;7912;51.376;6.126;2022-12-29T03:22:07;14.20;99.90
15625;DHT22;7912;51.376;6.126;2022-12-29T03:25:03;14.20;99.90
15625;DHT22;7912;51.376;6.126;2022-12-29T03:27:36;14.20;99.90
15625;DHT22;7912;51.376;6.126;2022-12-29T03:30:09;14.10;99.90
15625;DHT22;7912;51.376;6.126;2022-12-29T03:32:44;14.10;99.90
15625;DHT22;7912;51.376;6.126;2022-12-29T03:35:18;14.10;99.90
15625;DHT22;7912;51.376;6.126;2022-12-29T03:37:58;14.10;99.90
15625;DHT22;7912;51.376;6.126;2022-12-29T03:40:30;14.10;99.90
15625;DHT22;7912;51.376;6.126;2022-12-29T03:43:00;14.10;99.90
15625;DHT22;7912;51.376;6.126;2022-12-29T03:45:29;14.10;99.90
15625;DHT22;7912;51.376;6.126;2022-12-29T03:47:56;14.10;99.90
15625;DHT22;7912;51.376;6.126;2022-12-29T03:50:27;14.10;99.90
15625;DHT22;7912;51.376;6.126;2022-12-29T03:52:54;14.10;99.90
15625;DHT22;7912;51.376;6.126;2022-12-29T03:55:22;14.10;99.90
15625;DHT22;7912;51.376;6.126;2022-12-29T03:57:49;14.10;99.90
15625;DHT22;7912;51.376;6.126;2022-12-29T04:00:16;14.10;99.90
15625;DHT22;7912;51.376;6.126;2022-12-29T04:02:44;14.10;99.90
15625;DHT22;7912;51.376;6.126;2022-12-29T04:05:12;14.10;99.90
15625;DHT22;7912;51.376;6.126;2022-12-29T04:07:39;14.10;99.90
15625;DHT22;7912;51.376;6.126;2022-12-29T04:10:07;14.00;99.90
15625;DHT22;7912;51.376;6.126;2022-12-29T04:12:35;14.00;99.90
15625;DHT22;7912;51.376;6.126;2022-12-29T04:15:03;14.00;99.90
15625;DHT22;7912;51.376;6.126;2022-12-29T04:17:30;13.90;99.90
15625;DHT22;7912;51.376;6.126;2022-12-29T04:19:58;13.80;99.90
15625;DHT22;7912;51.376;6.126;2022-12-29T04:22:45;13.70;99.90
15625;DHT22;7912;51.376;6.126;2022-12-29T04:25:12;13.60;99.90
15625;DHT22;7912;51.376;6.126;2022-12-29T04:27:40;13.50;99.90
15625;DHT22;7912;51.376;6.126;2022-12-29T04:30:08;13.40;99.90
15625;DHT22;7912;51.376;6.126;2022-12-29T04:32:35;13.20;99.90
15625;DHT22;7912;51.376;6.126;2022-12-29T04:35:03;13.10;99.90
15625;DHT22;7912;51.376;6.126;2022-12-29T04:37:31;13.00;99.90
15625;DHT22;7912;51.376;6.126;2022-12-29T04:39:59;12.90;99.90
15625;DHT22;7912;51.376;6.126;2022-12-29T04:42:26;12.90;99.90
15625;DHT22;7912;51.376;6.126;2022-12-29T04:44:54;12.80;99.90
15625;DHT22;7912;51.376;6.126;2022-12-29T04:47:21;12.70;99.90
15625;DHT22;7912;51.376;6.126;2022-12-29T04:49:49;12.70;99.90
15625;DHT22;7912;51.376;6.126;2022-12-29T04:52:16;12.70;99.90
15625;DHT22;7912;51.376;6.126;2022-12-29T04:54:44;12.70;99.90
15625;DHT22;7912;51.376;6.126;2022-12-29T04:57:11;12.60;99.90
15625;DHT22;7912;51.376;6.126;2022-12-29T04:59:40;12.60;99.90
15625;DHT22;7912;51.376;6.126;2022-12-29T05:02:07;12.60;99.90
15625;DHT22;7912;51.376;6.126;2022-12-29T05:04:34;12.60;99.90
15625;DHT22;7912;51.376;6.126;2022-12-29T05:07:02;12.60;99.90
15625;DHT22;7912;51.376;6.126;2022-12-29T05:09:29;12.60;99.90
15625;DHT22;7912;51.376;6.126;2022-12-29T05:11:56;12.60;99.90
15625;DHT22;7912;51.376;6.126;2022-12-29T05:14:24;12.60;99.90
15625;DHT22;7912;51.376;6.126;2022-12-29T05:16:51;12.60;99.90
15625;DHT22;7912;51.376;6.126;2022-12-29T05:19:18;12.50;99.90
15625;DHT22;7912;51.376;6.126;2022-12-29T05:21:46;12.60;99.90
15625;DHT22;7912;51.376;6.126;2022-12-29T05:24:15;12.50;99.90
15625;DHT22;7912;51.376;6.126;2022-12-29T05:26:44;12.50;99.90
15625;DHT22;7912;51.376;6.126;2022-12-29T05:29:11;12.50;99.90
15625;DHT22;7912;51.376;6.126;2022-12-29T05:31:38;12.50;99.90
15625;DHT22;7912;51.376;6.126;2022-12-29T05:34:06;12.50;99.90
15625;DHT22;7912;51.376;6.126;2022-12-29T05:36:33;12.50;99.90
15625;DHT22;7912;51.376;6.126;2022-12-29T05:39:03;12.50;99.90
15625;DHT22;7912;51.376;6.126;2022-12-29T05:41:31;12.50;99.90
15625;DHT22;7912;51.376;6.126;2022-12-29T05:43:59;12.50;99.90
15625;DHT22;7912;51.376;6.126;2022-12-29T05:46:27;12.50;99.90
15625;DHT22;7912;51.376;6.126;2022-12-29T05:48:54;12.50;99.90
15625;DHT22;7912;51.376;6.126;2022-12-29T05:51:21;12.60;99.90
15625;DHT22;7912;51.376;6.126;2022-12-29T05:53:49;12.50;99.90
15625;DHT22;7912;51.376;6.126;2022-12-29T05:56:16;12.50;99.90
15625;DHT22;7912;51.376;6.126;2022-12-29T05:58:44;12.50;99.90
15625;DHT22;7912;51.376;6.126;2022-12-29T06:01:11;12.50;99.90
15625;DHT22;7912;51.376;6.126;2022-12-29T06:03:39;12.60;99.90
15625;DHT22;7912;51.376;6.126;2022-12-29T06:06:13;12.60;99.90
15625;DHT22;7912;51.376;6.126;2022-12-29T06:08:40;12.60;99.90
15625;DHT22;7912;51.376;6.126;2022-12-29T06:11:08;12.60;99.90
15625;DHT22;7912;51.376;6.126;2022-12-29T06:13:36;12.70;99.90
15625;DHT22;7912;51.376;6.126;2022-12-29T06:16:03;12.70;99.90
15625;DHT22;7912;51.376;6.126;2022-12-29T06:18:31;12.70;99.90
15625;DHT22;7912;51.376;6.126;2022-12-29T06:21:00;12.70;99.90
15625;DHT22;7912;51.376;6.126;2022-12-29T06:23:29;12.70;99.90
15625;DHT22;7912;51.376;6.126;2022-12-29T06:25:56;12.80;99.90
15625;DHT22;7912;51.376;6.126;2022-12-29T06:28:24;12.70;99.90
15625;DHT22;7912;51.376;6.126;2022-12-29T06:30:51;12.80;99.90
15625;DHT22;7912;51.376;6.126;2022-12-29T06:33:21;12.80;99.90
15625;DHT22;7912;51.376;6.126;2022-12-29T06:35:48;12.80;99.90
15625;DHT22;7912;51.376;6.126;2022-12-29T06:38:16;12.80;99.90
15625;DHT22;7912;51.376;6.126;2022-12-29T06:40:43;12.80;99.90
15625;DHT22;7912;51.376;6.126;2022-12-29T06:43:12;12.80;99.90
15625;DHT22;7912;51.376;6.126;2022-12-29T06:45:39;12.80;99.90
15625;DHT22;7912;51.376;6.126;2022-12-29T06:48:07;12.80;99.90
15625;DHT22;7912;51.376;6.126;2022-12-29T06:50:35;12.80;99.90
15625;DHT22;7912;51.376;6.126;2022-12-29T06:53:02;12.80;99.90
15625;DHT22;7912;51.376;6.126;2022-12-29T06:55:30;12.80;99.90
15625;DHT22;7912;51.376;6.126;2022-12-29T06:57:57;12.80;99.90
15625;DHT22;7912;51.376;6.126;2022-12-29T07:00:25;12.80;99.90
15625;DHT22;7912;51.376;6.126;2022-12-29T07:02:55;12.80;99.90
15625;DHT22;7912;51.376;6.126;2022-12-29T07:05:26;12.80;99.90
15625;DHT22;7912;51.376;6.126;2022-12-29T07:07:58;12.90;99.90
15625;DHT22;7912;51.376;6.126;2022-12-29T07:10:26;12.90;99.90
15625;DHT22;7912;51.376;6.126;2022-12-29T07:12:54;12.90;99.90
15625;DHT22;7912;51.376;6.126;2022-12-29T07:15:21;13.00;99.90
15625;DHT22;7912;51.376;6.126;2022-12-29T07:17:48;13.00;99.90
15625;DHT22;7912;51.376;6.126;2022-12-29T07:20:17;13.00;99.90
15625;DHT22;7912;51.376;6.126;2022-12-29T07:22:52;13.00;99.90
15625;DHT22;7912;51.376;6.126;2022-12-29T07:25:19;13.00;99.90
15625;DHT22;7912;51.376;6.126;2022-12-29T07:27:46;13.10;99.90
15625;DHT22;7912;51.376;6.126;2022-12-29T07:30:14;13.10;99.90
15625;DHT22;7912;51.376;6.126;2022-12-29T07:32:42;13.10;99.90
15625;DHT22;7912;51.376;6.126;2022-12-29T07:35:10;13.10;99.90
15625;DHT22;7912;51.376;6.126;2022-12-29T07:37:37;13.20;99.90
15625;DHT22;7912;51.376;6.126;2022-12-29T07:40:05;13.20;99.90
15625;DHT22;7912;51.376;6.126;2022-12-29T07:42:33;13.30;99.90
15625;DHT22;7912;51.376;6.126;2022-12-29T07:45:00;13.30;99.90
15625;DHT22;7912;51.376;6.126;2022-12-29T07:47:28;13.30;99.90
15625;DHT22;7912;51.376;6.126;2022-12-29T07:49:55;13.30;99.90
15625;DHT22;7912;51.376;6.126;2022-12-29T07:52:22;13.30;99.90
15625;DHT22;7912;51.376;6.126;2022-12-29T07:54:49;13.30;99.90
15625;DHT22;7912;51.376;6.126;2022-12-29T07:57:17;13.30;99.90
15625;DHT22;7912;51.376;6.126;2022-12-29T07:59:44;13.30;99.90
15625;DHT22;7912;51.376;6.126;2022-12-29T08:02:11;13.30;99.90
15625;DHT22;7912;51.376;6.126;2022-12-29T08:04:39;13.30;99.90
15625;DHT22;7912;51.376;6.126;2022-12-29T08:07:06;13.30;99.90
15625;DHT22;7912;51.376;6.126;2022-12-29T08:09:34;13.40;99.90
15625;DHT22;7912;51.376;6.126;2022-12-29T08:12:01;13.40;99.90
15625;DHT22;7912;51.376;6.126;2022-12-29T08:14:29;13.40;99.90
15625;DHT22;7912;51.376;6.126;2022-12-29T08:16:56;13.40;99.90
15625;DHT22;7912;51.376;6.126;2022-12-29T08:19:23;13.40;99.90
15625;DHT22;7912;51.376;6.126;2022-12-29T08:21:52;13.50;99.90
15625;DHT22;7912;51.376;6.126;2022-12-29T08:24:20;13.40;99.90
15625;DHT22;7912;51.376;6.126;2022-12-29T08:26:48;13.40;99.90
15625;DHT22;7912;51.376;6.126;2022-12-29T08:29:15;13.50;99.90
15625;DHT22;7912;51.376;6.126;2022-12-29T08:31:43;13.50;99.90
15625;DHT22;7912;51.376;6.126;2022-12-29T08:34:10;13.50;99.90
15625;DHT22;7912;51.376;6.126;2022-12-29T08:36:38;13.50;99.90
15625;DHT22;7912;51.376;6.126;2022-12-29T08:39:05;13.50;99.90
15625;DHT22;7912;51.376;6.126;2022-12-29T08:41:33;13.50;99.90
15625;DHT22;7912;51.376;6.126;2022-12-29T08:44:00;13.50;99.90
15625;DHT22;7912;51.376;6.126;2022-12-29T08:46:28;13.60;99.90
15625;DHT22;7912;51.376;6.126;2022-12-29T08:48:58;13.60;99.90
15625;DHT22;7912;51.376;6.126;2022-12-29T08:51:25;13.60;99.90
15625;DHT22;7912;51.376;6.126;2022-12-29T08:53:52;13.60;99.90
15625;DHT22;7912;51.376;6.126;2022-12-29T08:56:21;13.70;99.90
15625;DHT22;7912;51.376;6.126;2022-12-29T08:58:51;13.70;99.90
15625;DHT22;7912;51.376;6.126;2022-12-29T09:01:19;13.70;99.90
15625;DHT22;7912;51.376;6.126;2022-12-29T09:03:47;13.80;99.90
15625;DHT22;7912;51.376;6.126;2022-12-29T09:06:34;13.80;99.90
15625;DHT22;7912;51.376;6.126;2022-12-29T09:09:06;13.80;99.90
15625;DHT22;7912;51.376;6.126;2022-12-29T09:11:34;13.90;99.90
15625;DHT22;7912;51.376;6.126;2022-12-29T09:14:01;13.90;99.90
15625;DHT22;7912;51.376;6.126;2022-12-29T09:16:29;13.90;99.90
15625;DHT22;7912;51.376;6.126;2022-12-29T09:18:56;13.90;99.90
15625;DHT22;7912;51.376;6.126;2022-12-29T09:21:24;13.80;99.90
15625;DHT22;7912;51.376;6.126;2022-12-29T09:23:52;13.80;99.90
15625;DHT22;7912;51.376;6.126;2022-12-29T09:26:19;13.80;99.90
15625;DHT22;7912;51.376;6.126;2022-12-29T09:28:48;13.80;99.90
15625;DHT22;7912;51.376;6.126;2022-12-29T09:31:16;13.80;99.90
15625;DHT22;7912;51.376;6.126;2022-12-29T09:33:43;13.80;99.90
15625;DHT22;7912;51.376;6.126;2022-12-29T09:36:10;13.80;99.90
15625;DHT22;7912;51.376;6.126;2022-12-29T09:38:38;13.80;99.90
15625;DHT22;7912;51.376;6.126;2022-12-29T09:41:14;13.80;99.90
15625;DHT22;7912;51.376;6.126;2022-12-29T09:44:03;13.80;99.90
15625;DHT22;7912;51.376;6.126;2022-12-29T09:46:47;13.80;99.90
15625;DHT22;7912;51.376;6.126;2022-12-29T09:58:56;13.80;99.90
15625;DHT22;7912;51.376;6.126;2022-12-29T10:01:33;13.90;99.90
15625;DHT22;7912;51.376;6.126;2022-12-29T10:04:05;13.90;99.90
15625;DHT22;7912;51.376;6.126;2022-12-29T10:06:45;14.00;99.90
15625;DHT22;7912;51.376;6.126;2022-12-29T10:09:57;14.00;99.90
15625;DHT22;7912;51.376;6.126;2022-12-29T10:16:02;14.10;99.90
15625;DHT22;7912;51.376;6.126;2022-12-29T10:19:00;14.10;99.90
15625;DHT22;7912;51.376;6.126;2022-12-29T10:24:12;14.10;99.90
15625;DHT22;7912;51.376;6.126;2022-12-29T10:27:00;14.10;99.90
15625;DHT22;7912;51.376;6.126;2022-12-29T10:29:37;14.10;99.90
15625;DHT22;7912;51.376;6.126;2022-12-29T10:35:24;14.10;99.90
15625;DHT22;7912;51.376;6.126;2022-12-29T10:38:35;14.10;99.90
15625;DHT22;7912;51.376;6.126;2022-12-29T10:41:28;14.10;99.90
15625;DHT22;7912;51.376;6.126;2022-12-29T10:44:13;14.20;99.90
15625;DHT22;7912;51.376;6.126;2022-12-29T10:46:43;14.20;99.90
15625;DHT22;7912;51.376;6.126;2022-12-29T10:49:17;14.20;99.90
15625;DHT22;7912;51.376;6.126;2022-12-29T10:51:48;14.20;99.90
15625;DHT22;7912;51.376;6.126;2022-12-29T10:57:19;14.30;99.90
15625;DHT22;7912;51.376;6.126;2022-12-29T11:00:01;14.30;99.90
15625;DHT22;7912;51.376;6.126;2022-12-29T11:08:30;14.40;99.90
15625;DHT22;7912;51.376;6.126;2022-12-29T11:11:07;14.40;99.90
15625;DHT22;7912;51.376;6.126;2022-12-29T11:13:50;14.40;99.90
15625;DHT22;7912;51.376;6.126;2022-12-29T11:16:32;14.40;99.90
15625;DHT22;7912;51.376;6.126;2022-12-29T11:19:02;14.40;99.90
15625;DHT22;7912;51.376;6.126;2022-12-29T11:21:35;14.40;99.90
15625;DHT22;7912;51.376;6.126;2022-12-29T11:24:29;14.50;99.90
15625;DHT22;7912;51.376;6.126;2022-12-29T11:27:15;14.50;99.90
15625;DHT22;7912;51.376;6.126;2022-12-29T11:29:51;14.50;99.90
15625;DHT22;7912;51.376;6.126;2022-12-29T11:32:26;14.50;99.90
15625;DHT22;7912;51.376;6.126;2022-12-29T11:34:57;14.50;99.90
15625;DHT22;7912;51.376;6.126;2022-12-29T11:37:32;14.50;99.90
15625;DHT22;7912;51.376;6.126;2022-12-29T11:40:20;14.50;99.90
15625;DHT22;7912;51.376;6.126;2022-12-29T11:42:51;14.60;99.90
15625;DHT22;7912;51.376;6.126;2022-12-29T11:45:34;14.60;99.90
15625;DHT22;7912;51.376;6.126;2022-12-29T11:48:17;14.60;99.90
15625;DHT22;7912;51.376;6.126;2022-12-29T11:50:55;14.60;99.90
15625;DHT22;7912;51.376;6.126;2022-12-29T11:53:27;14.70;99.90
15625;DHT22;7912;51.376;6.126;2022-12-29T11:56:13;14.70;99.90
15625;DHT22;7912;51.376;6.126;2022-12-29T11:58:42;14.70;99.90
15625;DHT22;7912;51.376;6.126;2022-12-29T12:01:25;14.70;99.90
15625;DHT22;7912;51.376;6.126;2022-12-29T12:04:16;14.80;99.90
15625;DHT22;7912;51.376;6.126;2022-12-29T12:06:54;14.80;99.90
15625;DHT22;7912;51.376;6.126;2022-12-29T12:10:10;14.80;99.90
15625;DHT22;7912;51.376;6.126;2022-12-29T12:15:27;14.70;99.90
15625;DHT22;7912;51.376;6.126;2022-12-29T12:21:40;14.70;99.90
15625;DHT22;7912;51.376;6.126;2022-12-29T12:24:25;14.70;99.90
15625;DHT22;7912;51.376;6.126;2022-12-29T12:27:24;14.70;99.90
15625;DHT22;7912;51.376;6.126;2022-12-29T12:35:14;14.60;99.90
15625;DHT22;7912;51.376;6.126;2022-12-29T12:54:05;14.70;99.90
15625;DHT22;7912;51.376;6.126;2022-12-29T13:00:11;14.70;99.90
15625;DHT22;7912;51.376;6.126;2022-12-29T13:15:00;14.70;99.90
15625;DHT22;7912;51.376;6.126;2022-12-29T13:23:12;14.60;99.90
15625;DHT22;7912;51.376;6.126;2022-12-29T13:29:15;14.50;99.90
15625;DHT22;7912;51.376;6.126;2022-12-29T13:37:02;14.30;99.90
15625;DHT22;7912;51.376;6.126;2022-12-29T13:39:58;14.30;99.90
15625;DHT22;7912;51.376;6.126;2022-12-29T13:42:30;14.30;99.90
15625;DHT22;7912;51.376;6.126;2022-12-29T13:45:12;14.20;99.90
15625;DHT22;7912;51.376;6.126;2022-12-29T13:48:24;14.20;99.90
15625;DHT22;7912;51.376;6.126;2022-12-29T13:50:57;14.20;99.90
15625;DHT22;7912;51.376;6.126;2022-12-29T13:56:13;14.20;99.90
15625;DHT22;7912;51.376;6.126;2022-12-29T13:58:57;14.20;99.90
15625;DHT22;7912;51.376;6.126;2022-12-29T14:01:46;14.10;99.90
15625;DHT22;7912;51.376;6.126;2022-12-29T14:04:28;14.20;99.90
15625;DHT22;7912;51.376;6.126;2022-12-29T14:07:13;14.10;99.90
15625;DHT22;7912;51.376;6.126;2022-12-29T14:09:56;14.10;99.90
15625;DHT22;7912;51.376;6.126;2022-12-29T14:12:42;14.20;99.90
15625;DHT22;7912;51.376;6.126;2022-12-29T14:17:39;14.20;99.90
15625;DHT22;7912;51.376;6.126;2022-12-29T14:20:21;14.10;99.90
15625;DHT22;7912;51.376;6.126;2022-12-29T14:28:39;14.20;99.90
15625;DHT22;7912;51.376;6.126;2022-12-29T14:36:43;14.10;99.90
15625;DHT22;7912;51.376;6.126;2022-12-29T14:39:43;14.10;99.90
15625;DHT22;7912;51.376;6.126;2022-12-29T14:42:19;14.10;99.90
15625;DHT22;7912;51.376;6.126;2022-12-29T14:47:41;14.10;99.90
15625;DHT22;7912;51.376;6.126;2022-12-29T14:50:15;14.10;99.90
15625;DHT22;7912;51.376;6.126;2022-12-29T14:52:55;14.10;99.90
15625;DHT22;7912;51.376;6.126;2022-12-29T14:55:46;14.10;99.90
15625;DHT22;7912;51.376;6.126;2022-12-29T14:58:29;14.10;99.90
15625;DHT22;7912;51.376;6.126;2022-12-29T15:00:59;14.10;99.90
15625;DHT22;7912;51.376;6.126;2022-12-29T15:03:44;14.10;99.90
15625;DHT22;7912;51.376;6.126;2022-12-29T15:06:17;14.00;99.90
15625;DHT22;7912;51.376;6.126;2022-12-29T15:09:12;14.00;99.90
15625;DHT22;7912;51.376;6.126;2022-12-29T15:11:48;14.00;99.90
15625;DHT22;7912;51.376;6.126;2022-12-29T15:14:38;13.90;99.90
15625;DHT22;7912;51.376;6.126;2022-12-29T15:17:33;13.80;99.90
15625;DHT22;7912;51.376;6.126;2022-12-29T15:22:58;13.70;99.90
15625;DHT22;7912;51.376;6.126;2022-12-29T15:25:30;13.70;99.90
15625;DHT22;7912;51.376;6.126;2022-12-29T15:28:01;13.60;99.90
15625;DHT22;7912;51.376;6.126;2022-12-29T15:30:32;13.60;99.90
15625;DHT22;7912;51.376;6.126;2022-12-29T15:32:59;13.60;99.90
15625;DHT22;7912;51.376;6.126;2022-12-29T15:35:35;13.50;99.90
15625;DHT22;7912;51.376;6.126;2022-12-29T15:38:15;13.50;99.90
15625;DHT22;7912;51.376;6.126;2022-12-29T15:41:06;13.50;99.90
15625;DHT22;7912;51.376;6.126;2022-12-29T15:46:22;13.40;99.90
15625;DHT22;7912;51.376;6.126;2022-12-29T15:48:49;13.40;99.90
15625;DHT22;7912;51.376;6.126;2022-12-29T15:51:20;13.40;99.90
15625;DHT22;7912;51.376;6.126;2022-12-29T15:53:59;13.30;99.90
15625;DHT22;7912;51.376;6.126;2022-12-29T15:56:31;13.30;99.90
15625;DHT22;7912;51.376;6.126;2022-12-29T15:59:00;13.30;99.90
15625;DHT22;7912;51.376;6.126;2022-12-29T16:01:33;13.30;99.90
15625;DHT22;7912;51.376;6.126;2022-12-29T16:04:09;13.30;99.90
15625;DHT22;7912;51.376;6.126;2022-12-29T16:06:38;13.20;99.90
15625;DHT22;7912;51.376;6.126;2022-12-29T16:09:14;13.10;99.90
15625;DHT22;7912;51.376;6.126;2022-12-29T16:11:51;13.10;99.90
15625;DHT22;7912;51.376;6.126;2022-12-29T16:14:27;12.90;99.90
15625;DHT22;7912;51.376;6.126;2022-12-29T16:17:01;12.80;99.90
15625;DHT22;7912;51.376;6.126;2022-12-29T16:19:36;12.70;99.90
15625;DHT22;7912;51.376;6.126;2022-12-29T16:22:17;12.50;99.90
15625;DHT22;7912;51.376;6.126;2022-12-29T16:24:56;12.40;99.90
15625;DHT22;7912;51.376;6.126;2022-12-29T16:27:40;12.20;99.90
15625;DHT22;7912;51.376;6.126;2022-12-29T16:30:25;12.10;99.90
15625;DHT22;7912;51.376;6.126;2022-12-29T16:33:05;12.00;99.90
15625;DHT22;7912;51.376;6.126;2022-12-29T16:35:44;11.90;99.90
15625;DHT22;7912;51.376;6.126;2022-12-29T16:38:20;11.80;99.90
15625;DHT22;7912;51.376;6.126;2022-12-29T16:40:53;11.70;99.90
15625;DHT22;7912;51.376;6.126;2022-12-29T16:43:26;11.60;99.90
15625;DHT22;7912;51.376;6.126;2022-12-29T16:48:28;11.50;99.90
15625;DHT22;7912;51.376;6.126;2022-12-29T16:51:16;11.40;99.90
15625;DHT22;7912;51.376;6.126;2022-12-29T16:53:51;11.30;99.90
15625;DHT22;7912;51.376;6.126;2022-12-29T16:56:26;11.30;99.90
15625;DHT22;7912;51.376;6.126;2022-12-29T17:02:07;11.20;99.90
15625;DHT22;7912;51.376;6.126;2022-12-29T17:04:49;11.10;99.90
15625;DHT22;7912;51.376;6.126;2022-12-29T17:07:20;11.10;99.90
15625;DHT22;7912;51.376;6.126;2022-12-29T17:09:49;11.10;99.90
15625;DHT22;7912;51.376;6.126;2022-12-29T17:12:28;11.10;99.90
15625;DHT22;7912;51.376;6.126;2022-12-29T17:15:06;11.00;99.90
15625;DHT22;7912;51.376;6.126;2022-12-29T17:20:26;11.00;99.90
15625;DHT22;7912;51.376;6.126;2022-12-29T17:22:56;11.00;99.90
15625;DHT22;7912;51.376;6.126;2022-12-29T17:25:28;10.90;99.90
15625;DHT22;7912;51.376;6.126;2022-12-29T17:28:11;10.90;99.90
15625;DHT22;7912;51.376;6.126;2022-12-29T17:30:47;10.90;99.90
15625;DHT22;7912;51.376;6.126;2022-12-29T17:33:20;10.90;99.90
15625;DHT22;7912;51.376;6.126;2022-12-29T17:35:48;10.80;99.90
15625;DHT22;7912;51.376;6.126;2022-12-29T17:38:27;10.80;99.90
15625;DHT22;7912;51.376;6.126;2022-12-29T17:40:56;10.80;99.90
15625;DHT22;7912;51.376;6.126;2022-12-29T17:43:24;10.80;99.90
15625;DHT22;7912;51.376;6.126;2022-12-29T17:46:00;10.80;99.90
15625;DHT22;7912;51.376;6.126;2022-12-29T17:48:27;10.80;99.90
15625;DHT22;7912;51.376;6.126;2022-12-29T17:50:57;10.80;99.90
15625;DHT22;7912;51.376;6.126;2022-12-29T17:53:29;10.70;99.90
15625;DHT22;7912;51.376;6.126;2022-12-29T17:55:57;10.70;99.90
15625;DHT22;7912;51.376;6.126;2022-12-29T17:58:26;10.70;99.90
15625;DHT22;7912;51.376;6.126;2022-12-29T18:00:57;10.70;99.90
15625;DHT22;7912;51.376;6.126;2022-12-29T18:03:37;10.70;99.90
15625;DHT22;7912;51.376;6.126;2022-12-29T18:06:08;10.60;99.90
15625;DHT22;7912;51.376;6.126;2022-12-29T18:08:39;10.60;99.90
15625;DHT22;7912;51.376;6.126;2022-12-29T18:11:24;10.60;99.90
15625;DHT22;7912;51.376;6.126;2022-12-29T18:13:53;10.60;99.90
15625;DHT22;7912;51.376;6.126;2022-12-29T18:16:21;10.50;99.90
15625;DHT22;7912;51.376;6.126;2022-12-29T18:18:49;10.50;99.90
15625;DHT22;7912;51.376;6.126;2022-12-29T18:21:19;10.50;99.90
15625;DHT22;7912;51.376;6.126;2022-12-29T18:23:49;10.40;99.90
15625;DHT22;7912;51.376;6.126;2022-12-29T18:26:22;10.40;99.90
15625;DHT22;7912;51.376;6.126;2022-12-29T18:28:55;10.40;99.90
15625;DHT22;7912;51.376;6.126;2022-12-29T18:31:31;10.40;99.90
15625;DHT22;7912;51.376;6.126;2022-12-29T18:34:05;10.30;99.90
15625;DHT22;7912;51.376;6.126;2022-12-29T18:36:38;10.30;99.90
15625;DHT22;7912;51.376;6.126;2022-12-29T18:39:05;10.30;99.90
15625;DHT22;7912;51.376;6.126;2022-12-29T18:41:33;10.30;99.90
15625;DHT22;7912;51.376;6.126;2022-12-29T18:44:00;10.20;99.90
15625;DHT22;7912;51.376;6.126;2022-12-29T18:46:27;10.20;99.90
15625;DHT22;7912;51.376;6.126;2022-12-29T18:48:56;10.20;99.90
15625;DHT22;7912;51.376;6.126;2022-12-29T18:51:24;10.20;99.90
15625;DHT22;7912;51.376;6.126;2022-12-29T18:53:52;10.20;99.90
15625;DHT22;7912;51.376;6.126;2022-12-29T18:56:20;10.20;99.90
15625;DHT22;7912;51.376;6.126;2022-12-29T18:58:51;10.20;99.90
15625;DHT22;7912;51.376;6.126;2022-12-29T19:01:24;10.20;99.90
15625;DHT22;7912;51.376;6.126;2022-12-29T19:03:54;10.20;99.90